sensor_id;sensor_type;location;lat;lon;timestamp;pressure;altitude;pressure_sealevel;temperature;humidity
51617;BME280;37697;52.588;13.394;2024-01-15T00:01:13;98816.08;;;0.61;100.00
51617;BME280;37697;52.588;13.394;2024-01-15T00:06:39;98806.20;;;0.56;100.00
51617;BME280;37697;52.588;13.394;2024-01-15T00:12:06;98794.84;;;0.53;100.00
51617;BME280;37697;52.588;13.394;2024-01-15T00:17:32;98789.23;;;0.50;100.00
51617;BME280;37697;52.588;13.394;2024-01-15T00:22:51;98776.10;;;0.47;100.00
51617;BME280;37697;52.588;13.394;2024-01-15T00:28:17;98770.14;;;0.47;100.00
51617;BME280;37697;52.588;13.394;2024-01-15T00:33:35;98756.98;;;0.45;100.00
51617;BME280;37697;52.588;13.394;2024-01-15T00:39:01;98749.98;;;0.47;100.00
51617;BME280;37697;52.588;13.394;2024-01-15T00:44:26;98748.69;;;0.47;100.00
51617;BME280;37697;52.588;13.394;2024-01-15T00:49:52;98740.45;;;0.48;100.00
51617;BME280;37697;52.588;13.394;2024-01-15T01:00:36;98734.11;;;0.43;100.00
51617;BME280;37697;52.588;13.394;2024-01-15T01:06:01;98724.08;;;0.38;100.00
51617;BME280;37697;52.588;13.394;2024-01-15T01:11:27;98722.19;;;0.30;100.00
51617;BME280;37697;52.588;13.394;2024-01-15T01:16:45;98717.67;;;0.21;100.00
51617;BME280;37697;52.588;13.394;2024-01-15T01:22:11;98723.77;;;0.10;100.00
51617;BME280;37697;52.588;13.394;2024-01-15T01:27:37;98722.23;;;0.06;100.00
51617;BME280;37697;52.588;13.394;2024-01-15T01:33:03;98712.78;;;0.04;100.00
51617;BME280;37697;52.588;13.394;2024-01-15T01:38:29;98713.41;;;0.06;100.00
51617;BME280;37697;52.588;13.394;2024-01-15T01:43:55;98718.39;;;0.06;100.00
51617;BME280;37697;52.588;13.394;2024-01-15T01:49:20;98716.48;;;0.08;100.00
51617;BME280;37697;52.588;13.394;2024-01-15T01:54:46;98707.70;;;0.09;100.00
51617;BME280;37697;52.588;13.394;2024-01-15T02:00:14;98711.88;;;0.08;100.00
51617;BME280;37697;52.588;13.394;2024-01-15T02:05:41;98706.09;;;0.07;100.00
51617;BME280;37697;52.588;13.394;2024-01-15T02:11:08;98691.44;;;0.04;100.00
51617;BME280;37697;52.588;13.394;2024-01-15T02:16:34;98684.21;;;0.01;100.00
51617;BME280;37697;52.588;13.394;2024-01-15T02:21:59;98692.89;;;-0.01;100.00
51617;BME280;37697;52.588;13.394;2024-01-15T02:27:25;98694.80;;;-0.04;100.00
51617;BME280;37697;52.588;13.394;2024-01-15T02:32:44;98693.07;;;-0.02;100.00
51617;BME280;37697;52.588;13.394;2024-01-15T02:38:10;98687.21;;;-0.02;100.00
51617;BME280;37697;52.588;13.394;2024-01-15T02:43:36;98675.38;;;-0.04;100.00
51617;BME280;37697;52.588;13.394;2024-01-15T02:49:01;98675.99;;;-0.05;100.00
51617;BME280;37697;52.588;13.394;2024-01-15T02:54:26;98683.06;;;-0.02;100.00
51617;BME280;37697;52.588;13.394;2024-01-15T02:59:52;98681.56;;;0.01;100.00
51617;BME280;37697;52.588;13.394;2024-01-15T03:05:18;98671.63;;;0.04;100.00
51617;BME280;37697;52.588;13.394;2024-01-15T03:10:44;98667.02;;;0.07;100.00
51617;BME280;37697;52.588;13.394;2024-01-15T03:16:11;98661.85;;;0.08;100.00
51617;BME280;37697;52.588;13.394;2024-01-15T03:21:37;98661.39;;;0.11;100.00
51617;BME280;37697;52.588;13.394;2024-01-15T03:27:03;98654.18;;;0.11;100.00
51617;BME280;37697;52.588;13.394;2024-01-15T03:32:29;98654.48;;;0.13;100.00
51617;BME280;37697;52.588;13.394;2024-01-15T03:37:55;98646.52;;;0.14;100.00
51617;BME280;37697;52.588;13.394;2024-01-15T03:43:19;98633.59;;;0.15;100.00
51617;BME280;37697;52.588;13.394;2024-01-15T03:48:45;98636.14;;;0.16;100.00
51617;BME280;37697;52.588;13.394;2024-01-15T03:54:11;98631.85;;;0.16;100.00
51617;BME280;37697;52.588;13.394;2024-01-15T03:59:36;98616.83;;;0.17;100.00
51617;BME280;37697;52.588;13.394;2024-01-15T04:04:54;98607.92;;;0.20;100.00
51617;BME280;37697;52.588;13.394;2024-01-15T04:10:18;98605.59;;;0.21;100.00
51617;BME280;37697;52.588;13.394;2024-01-15T04:15:44;98599.55;;;0.22;100.00
51617;BME280;37697;52.588;13.394;2024-01-15T04:21:10;98597.28;;;0.23;100.00
51617;BME280;37697;52.588;13.394;2024-01-15T04:26:36;98596.20;;;0.24;100.00
51617;BME280;37697;52.588;13.394;2024-01-15T04:32:01;98601.50;;;0.23;100.00
51617;BME280;37697;52.588;13.394;2024-01-15T04:37:27;98596.19;;;0.24;100.00
51617;BME280;37697;52.588;13.394;2024-01-15T04:42:53;98590.05;;;0.25;100.00
51617;BME280;37697;52.588;13.394;2024-01-15T04:48:19;98586.52;;;0.26;100.00
51617;BME280;37697;52.588;13.394;2024-01-15T04:53:45;98585.31;;;0.28;100.00
51617;BME280;37697;52.588;13.394;2024-01-15T04:59:11;98574.53;;;0.29;100.00
51617;BME280;37697;52.588;13.394;2024-01-15T05:04:37;98574.57;;;0.30;100.00
51617;BME280;37697;52.588;13.394;2024-01-15T05:10:02;98577.05;;;0.30;100.00
51617;BME280;37697;52.588;13.394;2024-01-15T05:15:28;98574.23;;;0.31;100.00
51617;BME280;37697;52.588;13.394;2024-01-15T05:20:54;98570.40;;;0.34;100.00
51617;BME280;37697;52.588;13.394;2024-01-15T05:26:20;98574.17;;;0.36;100.00
51617;BME280;37697;52.588;13.394;2024-01-15T05:31:46;98561.14;;;0.29;100.00
51617;BME280;37697;52.588;13.394;2024-01-15T05:37:11;98550.41;;;0.26;100.00
51617;BME280;37697;52.588;13.394;2024-01-15T05:42:37;98545.90;;;0.27;100.00
51617;BME280;37697;52.588;13.394;2024-01-15T05:48:03;98554.66;;;0.32;100.00
51617;BME280;37697;52.588;13.394;2024-01-15T05:53:29;98548.10;;;0.37;100.00
51617;BME280;37697;52.588;13.394;2024-01-15T05:58:56;98545.94;;;0.41;100.00
51617;BME280;37697;52.588;13.394;2024-01-15T06:04:19;98555.09;;;0.46;100.00
51617;BME280;37697;52.588;13.394;2024-01-15T06:09:45;98543.59;;;0.47;100.00
51617;BME280;37697;52.588;13.394;2024-01-15T06:15:05;98548.52;;;0.47;100.00
51617;BME280;37697;52.588;13.394;2024-01-15T06:20:29;98539.59;;;0.47;100.00
51617;BME280;37697;52.588;13.394;2024-01-15T06:25:48;98543.13;;;0.49;100.00
51617;BME280;37697;52.588;13.394;2024-01-15T06:31:13;98552.85;;;0.52;100.00
51617;BME280;37697;52.588;13.394;2024-01-15T06:36:39;98544.95;;;0.56;100.00
51617;BME280;37697;52.588;13.394;2024-01-15T06:42:06;98550.05;;;0.60;100.00
51617;BME280;37697;52.588;13.394;2024-01-15T06:47:32;98557.80;;;0.60;100.00
51617;BME280;37697;52.588;13.394;2024-01-15T06:52:58;98544.31;;;0.59;100.00
51617;BME280;37697;52.588;13.394;2024-01-15T06:58:23;98561.41;;;0.57;100.00
51617;BME280;37697;52.588;13.394;2024-01-15T07:03:49;98565.30;;;0.57;100.00
51617;BME280;37697;52.588;13.394;2024-01-15T07:09:15;98573.50;;;0.61;100.00
51617;BME280;37697;52.588;13.394;2024-01-15T07:14:41;98582.41;;;0.54;100.00
51617;BME280;37697;52.588;13.394;2024-01-15T07:20:08;98586.23;;;0.47;100.00
51617;BME280;37697;52.588;13.394;2024-01-15T07:25:34;98591.67;;;0.46;100.00
51617;BME280;37697;52.588;13.394;2024-01-15T07:31:00;98604.40;;;0.41;100.00
51617;BME280;37697;52.588;13.394;2024-01-15T07:36:26;98608.11;;;0.37;100.00
51617;BME280;37697;52.588;13.394;2024-01-15T07:41:52;98611.02;;;0.39;100.00
51617;BME280;37697;52.588;13.394;2024-01-15T07:47:17;98615.30;;;0.44;100.00
51617;BME280;37697;52.588;13.394;2024-01-15T07:52:43;98616.33;;;0.49;100.00
51617;BME280;37697;52.588;13.394;2024-01-15T07:58:09;98618.67;;;0.57;100.00
51617;BME280;37697;52.588;13.394;2024-01-15T08:03:35;98619.19;;;0.60;100.00
51617;BME280;37697;52.588;13.394;2024-01-15T08:09:00;98618.76;;;0.59;100.00
51617;BME280;37697;52.588;13.394;2024-01-15T08:14:26;98618.39;;;0.63;100.00
51617;BME280;37697;52.588;13.394;2024-01-15T08:19:52;98615.41;;;0.66;100.00
51617;BME280;37697;52.588;13.394;2024-01-15T08:25:11;98632.50;;;0.70;100.00
51617;BME280;37697;52.588;13.394;2024-01-15T08:30:37;98627.41;;;0.74;100.00
51617;BME280;37697;52.588;13.394;2024-01-15T08:36:04;98622.30;;;0.75;100.00
51617;BME280;37697;52.588;13.394;2024-01-15T08:41:29;98621.57;;;0.78;100.00
51617;BME280;37697;52.588;13.394;2024-01-15T08:46:55;98630.45;;;0.78;100.00
51617;BME280;37697;52.588;13.394;2024-01-15T08:52:21;98633.75;;;0.80;100.00
51617;BME280;37697;52.588;13.394;2024-01-15T08:57:46;98626.76;;;0.79;100.00
51617;BME280;37697;52.588;13.394;2024-01-15T09:03:12;98636.95;;;0.78;100.00
51617;BME280;37697;52.588;13.394;2024-01-15T09:08:24;98655.65;;;0.77;100.00
51617;BME280;37697;52.588;13.394;2024-01-15T09:13:32;98648.57;;;0.80;100.00
51617;BME280;37697;52.588;13.394;2024-01-15T09:18:58;98655.15;;;0.83;100.00
51617;BME280;37697;52.588;13.394;2024-01-15T09:24:24;98657.54;;;0.84;100.00
51617;BME280;37697;52.588;13.394;2024-01-15T09:29:50;98673.80;;;0.87;100.00
51617;BME280;37697;52.588;13.394;2024-01-15T09:35:09;98673.10;;;0.92;100.00
51617;BME280;37697;52.588;13.394;2024-01-15T09:40:34;98666.11;;;1.00;100.00
51617;BME280;37697;52.588;13.394;2024-01-15T09:46:04;98672.56;;;1.14;100.00
51617;BME280;37697;52.588;13.394;2024-01-15T09:51:22;98662.66;;;1.20;100.00
51617;BME280;37697;52.588;13.394;2024-01-15T09:56:55;98661.23;;;1.25;100.00
51617;BME280;37697;52.588;13.394;2024-01-15T10:02:21;98666.42;;;1.34;100.00
51617;BME280;37697;52.588;13.394;2024-01-15T10:07:40;98655.06;;;1.47;100.00
51617;BME280;37697;52.588;13.394;2024-01-15T10:13:07;98650.08;;;1.61;100.00
51617;BME280;37697;52.588;13.394;2024-01-15T10:18:31;98646.73;;;1.71;100.00
51617;BME280;37697;52.588;13.394;2024-01-15T10:23:51;98642.99;;;1.74;100.00
51617;BME280;37697;52.588;13.394;2024-01-15T10:29:17;98650.46;;;1.71;100.00
51617;BME280;37697;52.588;13.394;2024-01-15T10:34:43;98651.63;;;1.64;100.00
51617;BME280;37697;52.588;13.394;2024-01-15T10:40:09;98656.73;;;1.56;100.00
51617;BME280;37697;52.588;13.394;2024-01-15T10:45:35;98652.17;;;1.51;100.00
51617;BME280;37697;52.588;13.394;2024-01-15T10:51:02;98652.30;;;1.51;100.00
51617;BME280;37697;52.588;13.394;2024-01-15T10:56:31;98645.61;;;1.56;100.00
51617;BME280;37697;52.588;13.394;2024-01-15T11:01:57;98643.56;;;1.58;100.00
51617;BME280;37697;52.588;13.394;2024-01-15T11:07:24;98648.11;;;1.66;100.00
51617;BME280;37697;52.588;13.394;2024-01-15T11:12:51;98648.45;;;1.69;100.00
51617;BME280;37697;52.588;13.394;2024-01-15T11:18:10;98646.37;;;1.70;100.00
51617;BME280;37697;52.588;13.394;2024-01-15T11:23:47;98647.46;;;1.73;100.00
51617;BME280;37697;52.588;13.394;2024-01-15T11:29:31;98655.53;;;1.77;100.00
51617;BME280;37697;52.588;13.394;2024-01-15T11:34:58;98653.75;;;1.81;100.00
51617;BME280;37697;52.588;13.394;2024-01-15T11:40:38;98661.23;;;1.77;100.00
51617;BME280;37697;52.588;13.394;2024-01-15T11:46:04;98664.20;;;1.72;100.00
51617;BME280;37697;52.588;13.394;2024-01-15T11:51:36;98663.19;;;1.56;100.00
51617;BME280;37697;52.588;13.394;2024-01-15T11:57:01;98673.61;;;1.48;100.00
51617;BME280;37697;52.588;13.394;2024-01-15T12:02:29;98686.15;;;1.40;100.00
51617;BME280;37697;52.588;13.394;2024-01-15T12:07:55;98685.96;;;1.26;100.00
51617;BME280;37697;52.588;13.394;2024-01-15T12:13:20;98685.61;;;1.15;100.00
51617;BME280;37697;52.588;13.394;2024-01-15T12:18:46;98688.42;;;1.08;100.00
51617;BME280;37697;52.588;13.394;2024-01-15T12:24:12;98696.46;;;1.05;100.00
51617;BME280;37697;52.588;13.394;2024-01-15T12:29:39;98700.73;;;1.07;100.00
51617;BME280;37697;52.588;13.394;2024-01-15T12:35:06;98696.65;;;1.03;100.00
51617;BME280;37697;52.588;13.394;2024-01-15T12:40:32;98686.54;;;0.98;100.00
51617;BME280;37697;52.588;13.394;2024-01-15T12:45:59;98692.73;;;0.92;100.00
51617;BME280;37697;52.588;13.394;2024-01-15T12:51:26;98699.59;;;0.84;100.00
51617;BME280;37697;52.588;13.394;2024-01-15T12:56:43;98701.56;;;0.82;100.00
51617;BME280;37697;52.588;13.394;2024-01-15T13:02:09;98711.32;;;0.83;100.00
51617;BME280;37697;52.588;13.394;2024-01-15T13:07:35;98725.52;;;0.82;100.00
51617;BME280;37697;52.588;13.394;2024-01-15T13:13:00;98738.55;;;0.85;100.00
51617;BME280;37697;52.588;13.394;2024-01-15T13:18:26;98745.11;;;0.85;100.00
51617;BME280;37697;52.588;13.394;2024-01-15T13:23:52;98745.58;;;0.87;100.00
51617;BME280;37697;52.588;13.394;2024-01-15T13:29:18;98745.29;;;0.84;100.00
51617;BME280;37697;52.588;13.394;2024-01-15T13:34:47;98749.27;;;0.87;100.00
51617;BME280;37697;52.588;13.394;2024-01-15T13:40:13;98747.68;;;0.88;100.00
51617;BME280;37697;52.588;13.394;2024-01-15T13:45:39;98752.48;;;0.90;100.00
51617;BME280;37697;52.588;13.394;2024-01-15T13:51:05;98763.60;;;0.89;100.00
51617;BME280;37697;52.588;13.394;2024-01-15T13:56:31;98776.13;;;0.89;100.00
51617;BME280;37697;52.588;13.394;2024-01-15T14:01:57;98785.72;;;0.90;100.00
51617;BME280;37697;52.588;13.394;2024-01-15T14:07:26;98795.64;;;0.89;100.00
51617;BME280;37697;52.588;13.394;2024-01-15T14:12:52;98799.30;;;0.87;100.00
51617;BME280;37697;52.588;13.394;2024-01-15T14:18:17;98810.02;;;0.88;100.00
51617;BME280;37697;52.588;13.394;2024-01-15T14:23:43;98810.73;;;0.86;100.00
51617;BME280;37697;52.588;13.394;2024-01-15T14:29:10;98811.80;;;0.83;100.00
51617;BME280;37697;52.588;13.394;2024-01-15T14:34:35;98820.69;;;0.84;100.00
51617;BME280;37697;52.588;13.394;2024-01-15T14:40:03;98827.35;;;0.84;100.00
51617;BME280;37697;52.588;13.394;2024-01-15T14:45:29;98832.05;;;0.80;100.00
51617;BME280;37697;52.588;13.394;2024-01-15T14:50:54;98838.20;;;0.76;100.00
51617;BME280;37697;52.588;13.394;2024-01-15T14:56:21;98846.34;;;0.76;100.00
51617;BME280;37697;52.588;13.394;2024-01-15T15:01:46;98853.96;;;0.73;100.00
51617;BME280;37697;52.588;13.394;2024-01-15T15:07:14;98862.84;;;0.67;100.00
51617;BME280;37697;52.588;13.394;2024-01-15T15:12:40;98863.58;;;0.63;100.00
51617;BME280;37697;52.588;13.394;2024-01-15T15:18:06;98872.84;;;0.55;100.00
51617;BME280;37697;52.588;13.394;2024-01-15T15:23:32;98878.27;;;0.49;100.00
51617;BME280;37697;52.588;13.394;2024-01-15T15:28:57;98882.04;;;0.40;100.00
51617;BME280;37697;52.588;13.394;2024-01-15T15:34:23;98895.02;;;0.34;100.00
51617;BME280;37697;52.588;13.394;2024-01-15T15:39:49;98900.42;;;0.29;100.00
51617;BME280;37697;52.588;13.394;2024-01-15T15:45:09;98912.69;;;0.25;100.00
51617;BME280;37697;52.588;13.394;2024-01-15T15:50:34;98916.99;;;0.20;100.00
51617;BME280;37697;52.588;13.394;2024-01-15T15:55:58;98928.23;;;0.17;100.00
51617;BME280;37697;52.588;13.394;2024-01-15T16:01:24;98934.25;;;0.14;100.00
51617;BME280;37697;52.588;13.394;2024-01-15T16:06:50;98943.20;;;0.10;100.00
51617;BME280;37697;52.588;13.394;2024-01-15T16:12:16;98948.46;;;0.07;100.00
51617;BME280;37697;52.588;13.394;2024-01-15T16:17:42;98958.45;;;0.04;100.00
51617;BME280;37697;52.588;13.394;2024-01-15T16:23:21;98965.44;;;-0.00;100.00
51617;BME280;37697;52.588;13.394;2024-01-15T16:29:06;98971.39;;;-0.03;100.00
51617;BME280;37697;52.588;13.394;2024-01-15T16:34:32;98980.17;;;-0.06;100.00
51617;BME280;37697;52.588;13.394;2024-01-15T16:39:58;98981.38;;;-0.07;100.00
51617;BME280;37697;52.588;13.394;2024-01-15T16:45:16;98985.77;;;-0.10;100.00
51617;BME280;37697;52.588;13.394;2024-01-15T16:50:42;98990.38;;;-0.11;100.00
51617;BME280;37697;52.588;13.394;2024-01-15T16:56:08;98995.96;;;-0.15;100.00
51617;BME280;37697;52.588;13.394;2024-01-15T17:01:33;99005.05;;;-0.17;100.00
51617;BME280;37697;52.588;13.394;2024-01-15T17:06:59;99013.19;;;-0.20;100.00
51617;BME280;37697;52.588;13.394;2024-01-15T17:12:25;99023.14;;;-0.22;100.00
51617;BME280;37697;52.588;13.394;2024-01-15T17:17:51;99036.46;;;-0.23;100.00
51617;BME280;37697;52.588;13.394;2024-01-15T17:23:16;99049.60;;;-0.22;100.00
51617;BME280;37697;52.588;13.394;2024-01-15T17:28:42;99055.40;;;-0.21;100.00
51617;BME280;37697;52.588;13.394;2024-01-15T17:34:08;99061.30;;;-0.17;100.00
51617;BME280;37697;52.588;13.394;2024-01-15T17:39:34;99068.38;;;-0.15;100.00
51617;BME280;37697;52.588;13.394;2024-01-15T17:45:00;99073.02;;;-0.13;100.00
51617;BME280;37697;52.588;13.394;2024-01-15T17:50:26;99073.23;;;-0.10;100.00
51617;BME280;37697;52.588;13.394;2024-01-15T17:55:52;99077.79;;;-0.08;100.00
51617;BME280;37697;52.588;13.394;2024-01-15T18:01:18;99081.90;;;-0.09;100.00
51617;BME280;37697;52.588;13.394;2024-01-15T18:06:44;99094.08;;;-0.08;100.00
51617;BME280;37697;52.588;13.394;2024-01-15T18:12:09;99102.10;;;-0.15;100.00
51617;BME280;37697;52.588;13.394;2024-01-15T18:17:34;99108.31;;;-0.20;100.00
51617;BME280;37697;52.588;13.394;2024-01-15T18:23:00;99111.95;;;-0.27;100.00
51617;BME280;37697;52.588;13.394;2024-01-15T18:28:26;99122.30;;;-0.33;100.00
51617;BME280;37697;52.588;13.394;2024-01-15T18:33:51;99128.35;;;-0.42;100.00
51617;BME280;37697;52.588;13.394;2024-01-15T18:39:20;99141.64;;;-0.48;100.00
51617;BME280;37697;52.588;13.394;2024-01-15T18:44:45;99150.88;;;-0.58;100.00
51617;BME280;37697;52.588;13.394;2024-01-15T18:50:11;99158.17;;;-0.66;100.00
51617;BME280;37697;52.588;13.394;2024-01-15T18:55:37;99164.77;;;-0.73;100.00
51617;BME280;37697;52.588;13.394;2024-01-15T19:01:03;99175.73;;;-0.77;100.00
51617;BME280;37697;52.588;13.394;2024-01-15T19:06:29;99187.08;;;-0.76;100.00
51617;BME280;37697;52.588;13.394;2024-01-15T19:11:55;99193.02;;;-0.77;100.00
51617;BME280;37697;52.588;13.394;2024-01-15T19:17:20;99205.52;;;-0.79;100.00
51617;BME280;37697;52.588;13.394;2024-01-15T19:22:46;99204.05;;;-0.78;100.00
51617;BME280;37697;52.588;13.394;2024-01-15T19:28:11;99213.73;;;-0.80;100.00
51617;BME280;37697;52.588;13.394;2024-01-15T19:33:36;99216.91;;;-0.82;100.00
51617;BME280;37697;52.588;13.394;2024-01-15T19:39:02;99223.27;;;-0.86;100.00
51617;BME280;37697;52.588;13.394;2024-01-15T19:44:28;99234.92;;;-0.91;99.96
51617;BME280;37697;52.588;13.394;2024-01-15T19:49:54;99252.17;;;-0.93;100.00
51617;BME280;37697;52.588;13.394;2024-01-15T19:55:20;99261.98;;;-0.97;99.95
51617;BME280;37697;52.588;13.394;2024-01-15T20:00:46;99267.00;;;-0.99;99.98
51617;BME280;37697;52.588;13.394;2024-01-15T20:06:12;99278.40;;;-0.98;100.00
51617;BME280;37697;52.588;13.394;2024-01-15T20:11:37;99289.05;;;-1.00;99.84
51617;BME280;37697;52.588;13.394;2024-01-15T20:17:03;99296.33;;;-1.04;99.47
51617;BME280;37697;52.588;13.394;2024-01-15T20:22:30;99301.87;;;-1.08;99.62
51617;BME280;37697;52.588;13.394;2024-01-15T20:27:56;99320.46;;;-1.08;99.63
51617;BME280;37697;52.588;13.394;2024-01-15T20:33:12;99335.48;;;-1.07;99.83
51617;BME280;37697;52.588;13.394;2024-01-15T20:38:38;99346.70;;;-1.05;99.66
51617;BME280;37697;52.588;13.394;2024-01-15T20:44:05;99350.31;;;-1.04;99.73
51617;BME280;37697;52.588;13.394;2024-01-15T20:49:30;99357.13;;;-1.04;99.63
51617;BME280;37697;52.588;13.394;2024-01-15T20:54:56;99362.21;;;-1.04;99.26
51617;BME280;37697;52.588;13.394;2024-01-15T21:00:22;99363.02;;;-1.05;99.29
51617;BME280;37697;52.588;13.394;2024-01-15T21:05:48;99366.73;;;-1.04;99.30
51617;BME280;37697;52.588;13.394;2024-01-15T21:11:15;99376.00;;;-1.04;98.90
51617;BME280;37697;52.588;13.394;2024-01-15T21:16:40;99383.49;;;-1.07;98.63
51617;BME280;37697;52.588;13.394;2024-01-15T21:21:58;99387.37;;;-1.08;98.49
51617;BME280;37697;52.588;13.394;2024-01-15T21:27:24;99388.59;;;-1.10;98.07
51617;BME280;37697;52.588;13.394;2024-01-15T21:32:50;99394.35;;;-1.14;97.85
51617;BME280;37697;52.588;13.394;2024-01-15T21:38:16;99403.46;;;-1.16;97.99
51617;BME280;37697;52.588;13.394;2024-01-15T21:43:42;99417.41;;;-1.17;98.02
51617;BME280;37697;52.588;13.394;2024-01-15T21:49:06;99422.59;;;-1.17;97.97
51617;BME280;37697;52.588;13.394;2024-01-15T21:54:32;99433.75;;;-1.14;97.91
51617;BME280;37697;52.588;13.394;2024-01-15T21:59:57;99439.38;;;-1.13;97.53
51617;BME280;37697;52.588;13.394;2024-01-15T22:05:23;99444.89;;;-1.14;97.17
51617;BME280;37697;52.588;13.394;2024-01-15T22:10:49;99454.70;;;-1.13;97.42
51617;BME280;37697;52.588;13.394;2024-01-15T22:16:14;99457.42;;;-1.13;97.32
51617;BME280;37697;52.588;13.394;2024-01-15T22:21:43;99456.39;;;-1.15;96.86
51617;BME280;37697;52.588;13.394;2024-01-15T22:27:09;99453.01;;;-1.19;96.87
51617;BME280;37697;52.588;13.394;2024-01-15T22:32:35;99447.37;;;-1.20;96.64
51617;BME280;37697;52.588;13.394;2024-01-15T22:37:53;99447.17;;;-1.19;96.91
51617;BME280;37697;52.588;13.394;2024-01-15T22:43:19;99443.83;;;-1.18;97.06
51617;BME280;37697;52.588;13.394;2024-01-15T22:48:45;99455.80;;;-1.20;96.89
51617;BME280;37697;52.588;13.394;2024-01-15T22:54:11;99461.95;;;-1.22;96.87
51617;BME280;37697;52.588;13.394;2024-01-15T22:59:35;99468.09;;;-1.23;96.99
51617;BME280;37697;52.588;13.394;2024-01-15T23:05:02;99462.77;;;-1.21;97.52
51617;BME280;37697;52.588;13.394;2024-01-15T23:10:28;99460.01;;;-1.15;97.67
51617;BME280;37697;52.588;13.394;2024-01-15T23:15:52;99471.64;;;-1.13;97.74
51617;BME280;37697;52.588;13.394;2024-01-15T23:21:18;99475.23;;;-1.11;97.98
51617;BME280;37697;52.588;13.394;2024-01-15T23:26:43;99475.11;;;-1.11;97.65
51617;BME280;37697;52.588;13.394;2024-01-15T23:32:09;99481.48;;;-1.12;97.37
51617;BME280;37697;52.588;13.394;2024-01-15T23:37:35;99465.91;;;-1.12;97.34
51617;BME280;37697;52.588;13.394;2024-01-15T23:43:00;99472.20;;;-1.11;97.36
51617;BME280;37697;52.588;13.394;2024-01-15T23:48:25;99481.55;;;-1.11;97.60
51617;BME280;37697;52.588;13.394;2024-01-15T23:53:51;99482.65;;;-1.09;97.59
51617;BME280;37697;52.588;13.394;2024-01-15T23:59:15;99484.38;;;-1.10;97.44
